createdAt,value
2018-09-19T00:00:02.490Z,0.00
2018-09-19T00:01:02.742Z,0.00
2018-09-19T00:02:02.985Z,0.00
2018-09-19T00:03:03.227Z,0.00
2018-09-19T00:04:03.503Z,0.00
2018-09-19T00:05:03.712Z,0.00
2018-09-19T00:06:03.957Z,0.00
2018-09-19T00:07:04.200Z,0.00
2018-09-19T00:08:04.440Z,0.00
2018-09-19T00:09:04.682Z,0.00
2018-09-19T00:10:04.922Z,0.00
2018-09-19T00:11:05.171Z,0.00
2018-09-19T00:12:05.410Z,0.00
2018-09-19T00:13:05.651Z,0.00
2018-09-19T00:14:05.894Z,0.00
2018-09-19T00:15:06.136Z,0.00
2018-09-19T00:16:06.383Z,0.00
2018-09-19T00:17:06.625Z,0.00
2018-09-19T00:18:06.865Z,0.00
2018-09-19T00:19:07.107Z,0.00
2018-09-19T00:20:07.361Z,0.00
2018-09-19T00:21:07.594Z,0.00
2018-09-19T00:22:07.834Z,0.00
2018-09-19T00:23:08.076Z,0.00
2018-09-19T00:24:08.318Z,0.00
2018-09-19T00:25:08.561Z,0.00
2018-09-19T00:26:08.803Z,0.00
2018-09-19T00:27:09.044Z,0.00
2018-09-19T00:28:09.292Z,0.00
2018-09-19T00:29:09.525Z,0.00
2018-09-19T00:30:09.769Z,0.00
2018-09-19T00:31:10.015Z,0.00
2018-09-19T00:32:10.256Z,0.00
2018-09-19T00:33:10.500Z,0.00
2018-09-19T00:34:10.741Z,0.00
2018-09-19T00:35:10.981Z,0.00
2018-09-19T00:36:11.225Z,0.00
2018-09-19T00:37:11.466Z,0.00
2018-09-19T00:38:11.706Z,0.00
2018-09-19T00:39:11.947Z,0.00
2018-09-19T00:40:12.193Z,0.00
2018-09-19T00:41:12.435Z,0.00
2018-09-19T00:42:12.677Z,0.00
2018-09-19T00:43:12.920Z,0.00
2018-09-19T00:44:13.161Z,0.00
2018-09-19T00:45:13.428Z,0.00
2018-09-19T00:46:13.645Z,0.00
2018-09-19T00:47:13.887Z,0.00
2018-09-19T00:48:14.128Z,0.00
2018-09-19T00:49:14.372Z,0.00
2018-09-19T00:50:14.613Z,0.00
2018-09-19T00:51:14.856Z,0.00
2018-09-19T00:52:15.107Z,0.00
2018-09-19T00:53:15.339Z,0.00
2018-09-19T00:54:15.636Z,0.00
2018-09-19T00:55:15.822Z,0.00
2018-09-19T00:56:16.063Z,0.00
2018-09-19T00:57:16.306Z,0.00
2018-09-19T00:58:16.547Z,0.00
2018-09-19T00:59:16.789Z,0.00
2018-09-19T01:00:17.033Z,0.00
2018-09-19T01:01:17.274Z,0.00
2018-09-19T01:02:17.515Z,0.00
2018-09-19T01:03:17.758Z,0.00
2018-09-19T01:04:17.998Z,0.00
2018-09-19T01:05:18.241Z,0.00
2018-09-19T01:06:18.478Z,0.00
2018-09-19T01:07:18.720Z,0.00
2018-09-19T01:08:18.960Z,0.00
2018-09-19T01:09:19.206Z,0.00
2018-09-19T01:10:19.444Z,0.00
2018-09-19T01:11:19.688Z,0.00
2018-09-19T01:12:19.931Z,0.00
2018-09-19T01:13:20.169Z,0.00
2018-09-19T01:14:20.410Z,0.00
2018-09-19T01:15:20.685Z,0.00
2018-09-19T01:16:20.895Z,0.00
2018-09-19T01:17:21.134Z,0.00
2018-09-19T01:18:21.373Z,0.00
2018-09-19T01:19:21.613Z,0.00
2018-09-19T01:20:21.854Z,0.00
2018-09-19T01:21:22.090Z,0.00
2018-09-19T01:22:22.338Z,0.00
2018-09-19T01:23:22.585Z,0.00
2018-09-19T01:24:22.823Z,0.00
2018-09-19T01:25:23.068Z,0.00
2018-09-19T01:26:23.308Z,0.00
2018-09-19T01:27:23.549Z,0.00
2018-09-19T01:28:23.790Z,0.00
2018-09-19T01:29:24.032Z,0.00
2018-09-19T01:30:24.275Z,0.00
2018-09-19T01:31:24.520Z,0.00
2018-09-19T01:32:24.768Z,0.00
2018-09-19T01:33:25.005Z,0.00
2018-09-19T01:34:25.255Z,0.00
2018-09-19T01:35:25.491Z,0.00
2018-09-19T01:36:25.728Z,0.00
2018-09-19T01:37:26.024Z,0.00
2018-09-19T01:38:26.210Z,0.00
2018-09-19T01:39:26.453Z,0.00
2018-09-19T01:40:26.698Z,0.00
2018-09-19T01:41:26.937Z,0.00
2018-09-19T01:42:27.179Z,0.00
2018-09-19T01:43:27.420Z,0.00
2018-09-19T01:44:27.666Z,0.00
2018-09-19T01:45:27.907Z,0.00
2018-09-19T01:46:28.147Z,0.00
2018-09-19T01:47:28.389Z,0.00
2018-09-19T01:48:28.632Z,0.00
2018-09-19T01:49:28.873Z,0.00
2018-09-19T01:50:29.117Z,0.00
2018-09-19T01:51:29.358Z,0.00
2018-09-19T01:52:29.601Z,0.00
2018-09-19T01:53:29.845Z,0.00
2018-09-19T01:54:30.085Z,0.00
2018-09-19T01:55:30.330Z,0.00
2018-09-19T01:56:30.571Z,0.00
2018-09-19T01:57:30.809Z,0.00
2018-09-19T01:58:31.054Z,0.00
2018-09-19T01:59:31.299Z,0.00
2018-09-19T02:00:31.538Z,0.00
2018-09-19T02:01:31.782Z,0.00
2018-09-19T02:02:32.021Z,0.00
2018-09-19T02:03:32.277Z,0.00
2018-09-19T02:04:32.509Z,0.00
2018-09-19T02:05:32.750Z,0.00
2018-09-19T02:06:32.993Z,0.00
2018-09-19T02:07:33.237Z,0.00
2018-09-19T02:08:33.475Z,0.00
2018-09-19T02:09:33.716Z,0.00
2018-09-19T02:10:33.957Z,0.00
2018-09-19T02:11:34.199Z,0.00
2018-09-19T02:12:34.442Z,0.00
2018-09-19T02:13:34.685Z,0.00
2018-09-19T02:14:34.926Z,0.00
2018-09-19T02:15:35.169Z,0.00
2018-09-19T02:16:35.409Z,0.00
2018-09-19T02:17:35.651Z,0.00
2018-09-19T02:18:35.902Z,0.00
2018-09-19T02:19:36.135Z,0.00
2018-09-19T02:20:36.381Z,0.00
2018-09-19T02:21:36.619Z,0.00
2018-09-19T02:22:36.865Z,0.00
2018-09-19T02:23:37.099Z,0.00
2018-09-19T02:24:37.337Z,0.00
2018-09-19T02:25:37.577Z,0.00
2018-09-19T02:26:37.821Z,0.00
2018-09-19T02:27:38.062Z,0.00
2018-09-19T02:28:38.330Z,0.00
2018-09-19T02:29:38.546Z,0.00
2018-09-19T02:30:38.786Z,0.00
2018-09-19T02:31:39.028Z,0.00
2018-09-19T02:32:39.269Z,0.00
2018-09-19T02:33:39.508Z,0.00
2018-09-19T02:34:39.749Z,0.00
2018-09-19T02:35:39.989Z,0.00
2018-09-19T02:36:40.235Z,0.00
2018-09-19T02:37:40.476Z,0.00
2018-09-19T02:38:40.712Z,0.00
2018-09-19T02:39:40.957Z,0.00
2018-09-19T02:40:41.193Z,0.00
2018-09-19T02:41:41.429Z,0.00
2018-09-19T02:42:41.671Z,0.00
2018-09-19T02:43:41.910Z,0.00
2018-09-19T02:44:42.152Z,0.00
2018-09-19T02:45:42.394Z,0.00
2018-09-19T02:46:42.654Z,0.00
2018-09-19T02:47:42.881Z,0.00
2018-09-19T02:48:43.117Z,0.00
2018-09-19T02:49:43.356Z,0.00
2018-09-19T02:50:43.596Z,0.00
2018-09-19T02:51:43.841Z,0.00
2018-09-19T02:52:44.079Z,0.00
2018-09-19T02:53:44.343Z,0.00
2018-09-19T02:54:44.568Z,0.00
2018-09-19T02:55:44.804Z,0.00
2018-09-19T02:56:45.042Z,0.00
2018-09-19T02:57:45.279Z,0.00
2018-09-19T02:58:45.520Z,0.00
2018-09-19T02:59:45.762Z,0.00
2018-09-19T03:00:46.015Z,0.00
2018-09-19T03:01:46.239Z,0.00
2018-09-19T03:02:46.485Z,0.00
2018-09-19T03:03:46.730Z,0.00
2018-09-19T03:04:46.990Z,0.00
2018-09-19T03:05:47.210Z,0.00
2018-09-19T03:06:47.451Z,0.00
2018-09-19T03:07:47.691Z,0.00
2018-09-19T03:08:47.935Z,0.00
2018-09-19T03:09:48.175Z,0.00
2018-09-19T03:10:48.416Z,0.00
2018-09-19T03:11:48.658Z,0.00
2018-09-19T03:12:48.896Z,0.00
2018-09-19T03:13:49.136Z,0.00
2018-09-19T03:14:49.380Z,0.00
2018-09-19T03:15:49.619Z,0.00
2018-09-19T03:19:01.677Z,0.00
2018-09-19T03:20:01.933Z,0.00
2018-09-19T03:21:02.158Z,0.00
2018-09-19T03:22:02.398Z,0.00
2018-09-19T03:23:02.638Z,0.00
2018-09-19T03:24:02.877Z,0.00
2018-09-19T03:25:03.117Z,0.00
2018-09-19T03:26:03.362Z,0.00
2018-09-19T03:27:03.600Z,0.00
2018-09-19T03:28:03.841Z,0.00
2018-09-19T03:29:04.083Z,0.00
2018-09-19T03:30:04.324Z,0.00
2018-09-19T03:31:04.575Z,0.00
2018-09-19T03:32:04.806Z,0.00
2018-09-19T03:33:05.048Z,0.00
2018-09-19T03:34:05.288Z,0.00
2018-09-19T03:35:05.531Z,0.00
2018-09-19T03:36:05.771Z,0.00
2018-09-19T03:37:06.009Z,0.00
2018-09-19T03:38:06.249Z,0.00
2018-09-19T03:39:06.491Z,0.00
2018-09-19T03:40:06.735Z,0.00
2018-09-19T03:41:06.973Z,0.00
2018-09-19T03:42:07.212Z,0.00
2018-09-19T03:43:07.458Z,0.00
2018-09-19T03:44:07.690Z,0.00
2018-09-19T03:45:07.931Z,0.00
2018-09-19T03:46:08.174Z,0.00
2018-09-19T03:47:08.415Z,0.00
2018-09-19T03:48:08.656Z,0.00
2018-09-19T03:49:08.900Z,0.00
2018-09-19T03:50:09.140Z,0.00
2018-09-19T03:51:09.381Z,0.00
2018-09-19T03:52:09.623Z,0.00
2018-09-19T03:53:09.863Z,0.00
2018-09-19T03:54:10.104Z,0.00
2018-09-19T03:55:10.345Z,0.00
2018-09-19T03:56:10.588Z,0.00
2018-09-19T03:57:10.829Z,0.00
2018-09-19T03:58:11.125Z,0.00
2018-09-19T03:59:11.313Z,0.00
2018-09-19T04:00:11.569Z,0.00
2018-09-19T04:01:11.797Z,0.00
2018-09-19T04:02:12.035Z,0.00
2018-09-19T04:03:12.276Z,0.00
2018-09-19T04:04:12.516Z,0.00
2018-09-19T04:05:12.758Z,0.00
2018-09-19T04:06:12.999Z,0.00
2018-09-19T04:07:13.241Z,0.00
2018-09-19T04:08:13.483Z,0.00
2018-09-19T04:09:13.724Z,0.00
2018-09-19T04:10:13.964Z,0.00
2018-09-19T04:11:14.207Z,0.00
2018-09-19T04:12:14.451Z,0.00
2018-09-19T04:13:14.693Z,0.00
2018-09-19T04:14:14.933Z,0.00
2018-09-19T04:15:15.175Z,0.00
2018-09-19T04:16:15.414Z,0.00
2018-09-19T04:17:15.660Z,0.00
2018-09-19T04:18:15.899Z,0.00
2018-09-19T04:19:16.230Z,0.00
2018-09-19T04:20:16.375Z,0.00
2018-09-19T04:21:16.614Z,0.00
2018-09-19T04:22:16.854Z,0.00
2018-09-19T04:23:17.096Z,0.00
2018-09-19T04:24:17.334Z,0.00
2018-09-19T04:25:17.575Z,0.00
2018-09-19T04:26:17.814Z,0.00
2018-09-19T04:27:18.057Z,0.00
2018-09-19T04:28:18.295Z,0.00
2018-09-19T04:29:18.534Z,4.00
2018-09-19T04:30:18.777Z,4.00
2018-09-19T04:31:19.016Z,0.00
2018-09-19T04:32:19.329Z,4.00
2018-09-19T04:33:19.498Z,4.00
2018-09-19T04:34:19.741Z,4.00
2018-09-19T04:35:19.981Z,4.00
2018-09-19T04:36:20.218Z,4.00
2018-09-19T04:37:20.462Z,4.00
2018-09-19T04:38:20.701Z,12.00
2018-09-19T04:39:20.931Z,12.00
2018-09-19T04:40:21.181Z,12.00
2018-09-19T04:41:21.416Z,16.00
2018-09-19T04:42:21.665Z,16.00
2018-09-19T04:43:21.902Z,20.00
2018-09-19T04:44:22.136Z,24.00
2018-09-19T04:45:22.379Z,28.00
2018-09-19T04:46:22.619Z,32.00
2018-09-19T04:47:23.033Z,40.00
2018-09-19T04:48:23.287Z,44.00
2018-09-19T04:49:23.507Z,52.00
2018-09-19T04:50:23.747Z,64.00
2018-09-19T04:51:24.003Z,72.00
2018-09-19T04:52:24.224Z,84.00
2018-09-19T04:53:24.465Z,92.00
2018-09-19T04:54:24.696Z,108.00
2018-09-19T04:55:24.952Z,124.00
2018-09-19T04:56:25.197Z,136.00
2018-09-19T04:57:25.438Z,152.00
2018-09-19T04:58:25.660Z,176.00
2018-09-19T04:59:25.905Z,192.00
2018-09-19T05:00:26.169Z,216.00
2018-09-19T05:01:26.388Z,240.00
2018-09-19T05:02:26.628Z,260.00
2018-09-19T05:03:26.871Z,288.00
2018-09-19T05:04:27.110Z,316.00
2018-09-19T05:05:27.356Z,348.00
2018-09-19T05:06:27.622Z,380.00
2018-09-19T05:07:27.957Z,412.00
2018-09-19T05:08:28.201Z,448.00
2018-09-19T05:09:28.595Z,492.00
2018-09-19T05:10:28.853Z,528.00
2018-09-19T05:11:29.135Z,572.00
2018-09-19T05:12:29.331Z,620.00
2018-09-19T05:13:29.569Z,664.00
2018-09-19T05:14:29.810Z,712.00
2018-09-19T05:15:30.062Z,772.00
2018-09-19T05:16:30.291Z,828.00
2018-09-19T05:17:30.555Z,884.00
2018-09-19T05:18:30.799Z,948.00
2018-09-19T05:19:31.051Z,1016.00
2018-09-19T05:20:31.299Z,1092.00
2018-09-19T05:21:31.538Z,1168.00
2018-09-19T05:22:31.779Z,1248.00
2018-09-19T05:23:32.018Z,1328.00
2018-09-19T05:24:32.261Z,1404.00
2018-09-19T05:25:32.504Z,1484.00
2018-09-19T05:26:32.741Z,1560.00
2018-09-19T05:27:32.984Z,1636.00
2018-09-19T05:28:33.227Z,1716.00
2018-09-19T05:29:33.469Z,1800.00
2018-09-19T05:30:33.708Z,1900.00
2018-09-19T05:31:33.958Z,2008.00
2018-09-19T05:32:34.191Z,2112.00
2018-09-19T05:33:34.430Z,2220.00
2018-09-19T05:34:34.668Z,2324.00
2018-09-19T05:35:34.909Z,2428.00
2018-09-19T05:36:35.148Z,2520.00
2018-09-19T05:37:35.394Z,2616.00
2018-09-19T05:38:35.632Z,2724.00
2018-09-19T05:39:35.874Z,2848.00
2018-09-19T05:40:36.110Z,2980.00
2018-09-19T05:41:36.353Z,3132.00
2018-09-19T05:42:36.594Z,3320.00
2018-09-19T05:43:36.834Z,3536.00
2018-09-19T05:44:37.075Z,3760.00
2018-09-19T05:45:37.313Z,3988.00
2018-09-19T05:46:37.634Z,4208.00
2018-09-19T05:47:37.795Z,4424.00
2018-09-19T05:48:38.038Z,4628.00
2018-09-19T05:49:38.305Z,4812.00
2018-09-19T05:50:38.516Z,4968.00
2018-09-19T05:51:38.757Z,5120.00
2018-09-19T05:52:39.003Z,5240.00
2018-09-19T05:53:39.237Z,5316.00
2018-09-19T05:54:39.552Z,5364.00
2018-09-19T05:55:39.719Z,5392.00
2018-09-19T05:56:39.962Z,5388.00
2018-09-19T05:57:40.203Z,5404.00
2018-09-19T05:58:40.441Z,5444.00
2018-09-19T05:59:40.684Z,5480.00
2018-09-19T06:00:40.923Z,5492.00
2018-09-19T06:01:41.168Z,5476.00
2018-09-19T06:02:41.405Z,5400.00
2018-09-19T06:03:41.654Z,5308.00
2018-09-19T06:04:41.916Z,5304.00
2018-09-19T06:05:42.132Z,5328.00
2018-09-19T06:06:42.374Z,5316.00
2018-09-19T06:07:42.618Z,5372.00
2018-09-19T06:08:42.860Z,5604.00
2018-09-19T06:09:43.096Z,5832.00
2018-09-19T06:10:43.342Z,5920.00
2018-09-19T06:11:43.583Z,6220.00
2018-09-19T06:12:43.841Z,6384.00
2018-09-19T06:13:44.069Z,6588.00
2018-09-19T06:14:44.308Z,6812.00
2018-09-19T06:15:44.557Z,7040.00
2018-09-19T06:16:44.790Z,7228.00
2018-09-19T06:17:45.034Z,7384.00
2018-09-19T06:18:45.276Z,7472.00
2018-09-19T06:19:45.517Z,7556.00
2018-09-19T06:20:45.762Z,7692.00
2018-09-19T06:21:46.008Z,8044.00
2018-09-19T06:22:46.245Z,8588.00
2018-09-19T06:23:46.536Z,9308.00
2018-09-19T06:24:46.731Z,9844.00
2018-09-19T06:25:46.972Z,10344.00
2018-09-19T06:26:47.244Z,11004.00
2018-09-19T06:27:47.458Z,11020.00
2018-09-19T06:28:47.697Z,11020.00
2018-09-19T06:29:47.942Z,11876.00
2018-09-19T06:30:48.186Z,12280.00
2018-09-19T06:31:48.429Z,12104.00
2018-09-19T06:32:48.737Z,12540.00
2018-09-19T06:33:48.915Z,12732.00
2018-09-19T06:34:49.159Z,13252.00
2018-09-19T06:35:49.406Z,13996.00
2018-09-19T06:36:49.650Z,14560.00
2018-09-19T06:37:49.891Z,14344.00
2018-09-19T06:38:50.136Z,13692.00
2018-09-19T06:39:50.391Z,13424.00
2018-09-19T06:40:50.658Z,13832.00
2018-09-19T06:41:50.869Z,14280.00
2018-09-19T06:42:51.120Z,14632.00
2018-09-19T06:43:51.365Z,15120.00
2018-09-19T06:44:51.610Z,16160.00
2018-09-19T06:45:51.860Z,15936.00
2018-09-19T06:46:52.164Z,14788.00
2018-09-19T06:47:52.349Z,13312.00
2018-09-19T06:48:52.602Z,15628.00
2018-09-19T06:49:52.843Z,16384.00
2018-09-19T06:50:53.091Z,16160.00
2018-09-19T06:51:53.402Z,16288.00
2018-09-19T06:52:53.582Z,17792.00
2018-09-19T06:53:53.830Z,18368.00
2018-09-19T06:54:54.075Z,13904.00
2018-09-19T06:55:54.323Z,15060.00
2018-09-19T06:56:54.571Z,18400.00
2018-09-19T06:57:54.818Z,20064.00
2018-09-19T06:58:55.070Z,22112.00
2018-09-19T06:59:55.313Z,22272.00
2018-09-19T07:00:55.563Z,21600.00
2018-09-19T07:01:55.810Z,21600.00
2018-09-19T07:02:56.056Z,21600.00
2018-09-19T07:03:56.305Z,25344.00
2018-09-19T07:04:56.552Z,15544.00
2018-09-19T07:05:56.853Z,23808.00
2018-09-19T07:06:57.048Z,19040.00
2018-09-19T07:07:57.295Z,17120.00
2018-09-19T07:08:57.542Z,15056.00
2018-09-19T07:09:57.789Z,17344.00
2018-09-19T07:10:58.038Z,16448.00
2018-09-19T07:11:58.289Z,14924.00
2018-09-19T07:12:58.535Z,14672.00
2018-09-19T07:13:58.783Z,14912.00
2018-09-19T07:14:59.030Z,14748.00
2018-09-19T07:15:59.279Z,15204.00
2018-09-19T07:16:59.537Z,15092.00
2018-09-19T07:17:59.777Z,13468.00
2018-09-19T07:19:00.092Z,12284.00
2018-09-19T07:20:00.277Z,12512.00
2018-09-19T07:21:00.521Z,13492.00
2018-09-19T07:22:00.770Z,15844.00
2018-09-19T07:23:01.018Z,16140.00
2018-09-19T07:24:01.269Z,16284.00
2018-09-19T07:25:01.561Z,16424.00
2018-09-19T07:26:01.770Z,14692.00
2018-09-19T07:27:02.013Z,13480.00
2018-09-19T07:28:02.260Z,12420.00
2018-09-19T07:29:02.512Z,12184.00
2018-09-19T07:30:02.758Z,12192.00
2018-09-19T07:31:03.024Z,12184.00
2018-09-19T07:32:03.258Z,12240.00
2018-09-19T07:33:03.505Z,12564.00
2018-09-19T07:34:03.754Z,13208.00
2018-09-19T07:35:04.007Z,15088.00
2018-09-19T07:36:04.251Z,15268.00
2018-09-19T07:37:04.501Z,20992.00
2018-09-19T07:38:04.748Z,31008.00
2018-09-19T07:39:05.000Z,32224.00
2018-09-19T07:40:05.294Z,32032.00
2018-09-19T07:41:05.498Z,33152.00
2018-09-19T07:42:05.746Z,33344.00
2018-09-19T07:43:05.993Z,34080.00
2018-09-19T07:44:06.243Z,34752.00
2018-09-19T07:45:06.490Z,36448.00
2018-09-19T07:46:06.737Z,37664.00
2018-09-19T07:47:06.990Z,37952.00
2018-09-19T07:48:07.235Z,38848.00
2018-09-19T07:49:07.486Z,38912.00
2018-09-19T07:50:07.734Z,40192.00
2018-09-19T07:51:07.983Z,40608.00
2018-09-19T07:52:08.236Z,39424.00
2018-09-19T07:53:08.486Z,40352.00
2018-09-19T07:54:08.735Z,42272.00
2018-09-19T07:55:09.006Z,42656.00
2018-09-19T07:56:09.236Z,41952.00
2018-09-19T07:57:09.508Z,41152.00
2018-09-19T07:58:09.736Z,41664.00
2018-09-19T07:59:09.978Z,42816.00
2018-09-19T08:00:10.241Z,41760.00
2018-09-19T08:01:10.508Z,41536.00
2018-09-19T08:02:10.740Z,41280.00
2018-09-19T08:03:11.013Z,47136.00
2018-09-19T08:04:11.237Z,48704.00
2018-09-19T08:05:11.488Z,47936.00
2018-09-19T08:06:11.735Z,48384.00
2018-09-19T08:07:11.987Z,49824.00
2018-09-19T08:08:12.243Z,48384.00
2018-09-19T08:09:12.523Z,49056.00
2018-09-19T08:10:12.746Z,50176.00
2018-09-19T08:11:12.998Z,51520.00
2018-09-19T08:12:13.244Z,50944.00
2018-09-19T08:13:13.499Z,49600.00
2018-09-19T08:14:13.773Z,51264.00
2018-09-19T08:15:13.995Z,54880.00
2018-09-19T08:16:14.249Z,54240.00
2018-09-19T08:17:14.500Z,54528.00
2018-09-19T08:18:14.749Z,56192.00
2018-09-19T08:19:15.003Z,55616.00
2018-09-19T08:20:15.248Z,57376.00
2018-09-19T08:21:15.503Z,57184.00
2018-09-19T08:22:15.752Z,57536.00
2018-09-19T08:23:16.008Z,59264.00
2018-09-19T08:24:16.258Z,57312.00
2018-09-19T08:25:16.516Z,56320.00
2018-09-19T08:26:16.763Z,58752.00
2018-09-19T08:27:17.022Z,57568.00
2018-09-19T08:28:17.263Z,53696.00
2018-09-19T08:29:17.514Z,60608.00
2018-09-19T08:30:17.769Z,64544.00
2018-09-19T08:31:18.016Z,64192.00
2018-09-19T08:32:18.267Z,61152.00
2018-09-19T08:33:18.518Z,64480.00
2018-09-19T08:34:18.770Z,65376.00
2018-09-19T08:35:19.048Z,65504.00
2018-09-19T08:36:19.270Z,65184.00
2018-09-19T08:37:19.522Z,65024.00
2018-09-19T08:38:19.770Z,59744.00
2018-09-19T08:39:20.020Z,59008.00
2018-09-19T08:40:20.271Z,67968.00
2018-09-19T08:41:20.522Z,68064.00
2018-09-19T08:42:20.772Z,64384.00
2018-09-19T08:43:21.027Z,65664.00
2018-09-19T08:44:21.277Z,66944.00
2018-09-19T08:45:21.532Z,67552.00
2018-09-19T08:46:21.781Z,66336.00
2018-09-19T08:47:22.034Z,65696.00
2018-09-19T08:48:22.285Z,66496.00
2018-09-19T08:49:22.546Z,64992.00
2018-09-19T08:50:22.852Z,61600.00
2018-09-19T08:51:23.043Z,62912.00
2018-09-19T08:52:23.299Z,65248.00
2018-09-19T08:53:23.550Z,67008.00
2018-09-19T08:54:23.802Z,69152.00
2018-09-19T08:55:24.056Z,71424.00
2018-09-19T08:56:24.308Z,75360.00
2018-09-19T08:57:24.560Z,75072.00
2018-09-19T08:58:24.816Z,74112.00
2018-09-19T08:59:25.069Z,72384.00
2018-09-19T09:00:25.324Z,72608.00
2018-09-19T09:01:25.581Z,77024.00
2018-09-19T09:02:25.833Z,77152.00
2018-09-19T09:03:26.085Z,73440.00
2018-09-19T09:04:26.338Z,70944.00
2018-09-19T09:05:26.675Z,75264.00
2018-09-19T09:06:26.835Z,73504.00
2018-09-19T09:07:27.087Z,69216.00
2018-09-19T09:08:27.341Z,73152.00
2018-09-19T09:09:27.595Z,70144.00
2018-09-19T09:10:27.850Z,74656.00
2018-09-19T09:11:28.106Z,71520.00
2018-09-19T09:12:28.364Z,72256.00
2018-09-19T09:13:28.623Z,75680.00
2018-09-19T09:14:28.864Z,79296.00
2018-09-19T09:15:29.118Z,77696.00
2018-09-19T09:16:29.377Z,74784.00
2018-09-19T09:17:29.624Z,76288.00
2018-09-19T09:18:29.874Z,82752.00
2018-09-19T09:19:30.128Z,84928.00
2018-09-19T09:20:30.414Z,78400.00
2018-09-19T09:21:30.636Z,75488.00
2018-09-19T09:22:30.889Z,80096.00
2018-09-19T09:23:31.145Z,81728.00
2018-09-19T09:24:31.399Z,77472.00
2018-09-19T09:25:31.648Z,73280.00
2018-09-19T09:26:31.903Z,74208.00
2018-09-19T09:27:32.154Z,77216.00
2018-09-19T09:28:32.407Z,80544.00
2018-09-19T09:29:32.659Z,81536.00
2018-09-19T09:30:32.916Z,80320.00
2018-09-19T09:31:33.168Z,75904.00
2018-09-19T09:32:33.424Z,78208.00
2018-09-19T09:33:33.674Z,83552.00
2018-09-19T09:34:33.930Z,82048.00
2018-09-19T09:35:34.184Z,81184.00
2018-09-19T09:36:34.477Z,83424.00
2018-09-19T09:37:34.692Z,82880.00
2018-09-19T09:38:34.944Z,81312.00
2018-09-19T09:39:35.202Z,86016.00
2018-09-19T09:40:35.523Z,87040.00
2018-09-19T09:41:35.709Z,80288.00
2018-09-19T09:42:35.965Z,81216.00
2018-09-19T09:43:36.253Z,90496.00
2018-09-19T09:44:36.476Z,90624.00
2018-09-19T09:45:36.729Z,82432.00
2018-09-19T09:46:36.983Z,80160.00
2018-09-19T09:47:37.231Z,82240.00
2018-09-19T09:48:37.488Z,82112.00
2018-09-19T09:49:37.741Z,83776.00
2018-09-19T09:50:37.999Z,85152.00
2018-09-19T09:51:38.315Z,83200.00
2018-09-19T09:52:38.505Z,84704.00
2018-09-19T09:53:38.766Z,88672.00
2018-09-19T09:54:39.016Z,87872.00
2018-09-19T09:55:39.270Z,80608.00
2018-09-19T09:56:39.527Z,79712.00
2018-09-19T09:57:39.785Z,86496.00
2018-09-19T09:58:40.040Z,90304.00
2018-09-19T09:59:40.295Z,86464.00
2018-09-19T10:00:40.552Z,79520.00
2018-09-19T10:01:40.803Z,79392.00
2018-09-19T10:02:41.059Z,84000.00
2018-09-19T10:03:41.318Z,86720.00
2018-09-19T10:04:41.569Z,89600.00
2018-09-19T10:05:41.825Z,90528.00
2018-09-19T10:06:42.082Z,89088.00
2018-09-19T10:07:42.336Z,88096.00
2018-09-19T10:08:42.591Z,89728.00
2018-09-19T10:09:42.846Z,94112.00
2018-09-19T10:10:43.103Z,96032.00
2018-09-19T10:11:43.363Z,92288.00
2018-09-19T10:12:43.618Z,86464.00
2018-09-19T10:13:43.924Z,85600.00
2018-09-19T10:14:44.129Z,94656.00
2018-09-19T10:15:44.387Z,103296.00
2018-09-19T10:16:44.645Z,101024.00
2018-09-19T10:17:44.894Z,95424.00
2018-09-19T10:18:45.151Z,94336.00
2018-09-19T10:19:45.403Z,97856.00
2018-09-19T10:20:45.660Z,97472.00
2018-09-19T10:21:45.914Z,94464.00
2018-09-19T10:22:46.168Z,94880.00
2018-09-19T10:23:46.422Z,101952.00
2018-09-19T10:24:46.676Z,105216.00
2018-09-19T10:25:46.931Z,100928.00
2018-09-19T10:26:47.186Z,94688.00
2018-09-19T10:27:47.441Z,95680.00
2018-09-19T10:28:47.697Z,101088.00
2018-09-19T10:29:47.952Z,104736.00
2018-09-19T10:30:48.205Z,101984.00
2018-09-19T10:31:48.459Z,94336.00
2018-09-19T10:32:48.714Z,93856.00
2018-09-19T10:33:48.968Z,102720.00
2018-09-19T10:34:49.224Z,111040.00
2018-09-19T10:35:49.485Z,110560.00
2018-09-19T10:36:49.736Z,105152.00
2018-09-19T10:37:49.992Z,97696.00
2018-09-19T10:38:50.249Z,99296.00
2018-09-19T10:39:50.503Z,107392.00
2018-09-19T10:40:50.758Z,111648.00
2018-09-19T10:41:51.013Z,107904.00
2018-09-19T10:42:51.268Z,104672.00
2018-09-19T10:43:51.582Z,104224.00
2018-09-19T10:44:51.779Z,106848.00
2018-09-19T10:45:52.034Z,109280.00
2018-09-19T10:46:52.293Z,108288.00
2018-09-19T10:47:52.543Z,105056.00
2018-09-19T10:48:52.795Z,103968.00
2018-09-19T10:49:53.054Z,104832.00
2018-09-19T10:50:53.306Z,104224.00
2018-09-19T10:51:53.560Z,104384.00
2018-09-19T10:52:53.813Z,106144.00
2018-09-19T10:53:54.076Z,108800.00
2018-09-19T10:54:54.325Z,109216.00
2018-09-19T10:55:54.579Z,106592.00
2018-09-19T10:56:54.870Z,106272.00
2018-09-19T10:57:55.089Z,105728.00
2018-09-19T10:58:55.345Z,106208.00
2018-09-19T10:59:55.602Z,108928.00
2018-09-19T11:00:55.860Z,110528.00
2018-09-19T11:01:56.112Z,108960.00
2018-09-19T11:02:56.369Z,107328.00
2018-09-19T11:03:56.641Z,106240.00
2018-09-19T11:04:56.879Z,110688.00
2018-09-19T11:05:57.136Z,116416.00
2018-09-19T11:06:57.395Z,117952.00
2018-09-19T11:07:57.653Z,116416.00
2018-09-19T11:08:57.912Z,43232.00
2018-09-19T11:09:58.171Z,26912.00
2018-09-19T11:10:58.430Z,25664.00
2018-09-19T11:11:58.687Z,26304.00
2018-09-19T11:12:58.944Z,25888.00
2018-09-19T11:13:59.198Z,28928.00
2018-09-19T11:14:59.454Z,29632.00
2018-09-19T11:15:59.710Z,76416.00
2018-09-19T11:16:59.979Z,107040.00
2018-09-19T11:18:00.219Z,113344.00
2018-09-19T11:19:00.474Z,111008.00
2018-09-19T11:20:00.733Z,102624.00
2018-09-19T11:21:00.984Z,105664.00
2018-09-19T11:22:01.238Z,109344.00
2018-09-19T11:23:01.491Z,113568.00
2018-09-19T11:24:01.745Z,111776.00
2018-09-19T11:25:02.001Z,108096.00
2018-09-19T11:26:02.255Z,91520.00
2018-09-19T11:27:02.508Z,94336.00
2018-09-19T11:28:02.762Z,108064.00
2018-09-19T11:29:03.018Z,106784.00
2018-09-19T11:30:03.274Z,108864.00
2018-09-19T11:31:03.532Z,111872.00
2018-09-19T11:32:03.788Z,110304.00
2018-09-19T11:33:04.044Z,107872.00
2018-09-19T11:34:04.298Z,107008.00
2018-09-19T11:35:04.552Z,107200.00
2018-09-19T11:36:04.809Z,112192.00
2018-09-19T11:37:05.071Z,115328.00
2018-09-19T11:38:05.320Z,111744.00
2018-09-19T11:39:05.576Z,112128.00
2018-09-19T11:40:05.831Z,112192.00
2018-09-19T11:41:06.102Z,115680.00
2018-09-19T11:42:06.356Z,119424.00
2018-09-19T11:43:06.614Z,118656.00
2018-09-19T11:44:06.907Z,116800.00
2018-09-19T11:45:07.162Z,113696.00
2018-09-19T11:46:07.418Z,111232.00
2018-09-19T11:47:07.674Z,108608.00
2018-09-19T11:48:07.926Z,107808.00
2018-09-19T11:49:08.183Z,109472.00
2018-09-19T11:50:08.434Z,110560.00
2018-09-19T11:51:08.687Z,110272.00
2018-09-19T11:52:08.942Z,113600.00
2018-09-19T11:53:09.199Z,116960.00
2018-09-19T11:54:09.454Z,115872.00
2018-09-19T11:55:09.711Z,114400.00
2018-09-19T11:56:09.966Z,96448.00
2018-09-19T11:57:10.221Z,47776.00
2018-09-19T11:58:10.524Z,47328.00
2018-09-19T11:59:10.733Z,109344.00
2018-09-19T12:00:10.992Z,113600.00
2018-09-19T12:01:11.243Z,113504.00
2018-09-19T12:02:11.501Z,112864.00
2018-09-19T12:03:11.756Z,89664.00
2018-09-19T12:04:12.012Z,105952.00
2018-09-19T12:05:12.273Z,113440.00
2018-09-19T12:06:12.522Z,115776.00
2018-09-19T12:07:12.827Z,111712.00
2018-09-19T12:08:13.033Z,107712.00
2018-09-19T12:09:13.323Z,111232.00
2018-09-19T12:10:13.547Z,116448.00
2018-09-19T12:11:13.809Z,111328.00
2018-09-19T12:12:14.060Z,107776.00
2018-09-19T12:13:14.315Z,111584.00
2018-09-19T12:14:14.570Z,111200.00
2018-09-19T12:15:14.827Z,111552.00
2018-09-19T12:16:15.083Z,97824.00
2018-09-19T12:17:15.341Z,103712.00
2018-09-19T12:18:15.597Z,110592.00
2018-09-19T12:19:15.855Z,117408.00
2018-09-19T12:20:16.114Z,117696.00
2018-09-19T12:21:16.368Z,31648.00
2018-09-19T12:22:16.626Z,31008.00
2018-09-19T12:23:16.885Z,91360.00